sensor_id;sensor_type;location;lat;lon;timestamp;pressure;altitude;pressure_sealevel;temperature;humidity
41264;BME280;26998;48.714;9.414;2022-08-21T00:00:06;98895.47;;;14.54;100.00
41264;BME280;26998;48.714;9.414;2022-08-21T00:02:33;98895.31;;;14.49;100.00
41264;BME280;26998;48.714;9.414;2022-08-21T00:05:00;98896.19;;;14.43;100.00
41264;BME280;26998;48.714;9.414;2022-08-21T00:07:26;98883.56;;;14.43;100.00
41264;BME280;26998;48.714;9.414;2022-08-21T00:09:53;98884.59;;;14.42;100.00
41264;BME280;26998;48.714;9.414;2022-08-21T00:12:22;98887.34;;;14.36;100.00
41264;BME280;26998;48.714;9.414;2022-08-21T00:14:48;98874.59;;;14.31;100.00
41264;BME280;26998;48.714;9.414;2022-08-21T00:17:15;98881.84;;;14.30;100.00
41264;BME280;26998;48.714;9.414;2022-08-21T00:19:41;98882.91;;;14.23;100.00
41264;BME280;26998;48.714;9.414;2022-08-21T00:22:08;98886.66;;;14.22;100.00
41264;BME280;26998;48.714;9.414;2022-08-21T00:24:34;98881.13;;;14.17;100.00
41264;BME280;26998;48.714;9.414;2022-08-21T00:27:00;98889.41;;;14.15;100.00
41264;BME280;26998;48.714;9.414;2022-08-21T00:29:27;98882.81;;;14.11;100.00
41264;BME280;26998;48.714;9.414;2022-08-21T00:31:53;98879.53;;;14.09;100.00
41264;BME280;26998;48.714;9.414;2022-08-21T00:34:20;98880.13;;;14.11;100.00
41264;BME280;26998;48.714;9.414;2022-08-21T00:36:46;98878.72;;;14.08;100.00
41264;BME280;26998;48.714;9.414;2022-08-21T00:39:13;98879.97;;;14.06;100.00
41264;BME280;26998;48.714;9.414;2022-08-21T00:41:39;98871.91;;;14.06;100.00
41264;BME280;26998;48.714;9.414;2022-08-21T00:44:07;98872.50;;;14.08;100.00
41264;BME280;26998;48.714;9.414;2022-08-21T00:46:36;98873.78;;;14.05;100.00
41264;BME280;26998;48.714;9.414;2022-08-21T00:49:03;98874.22;;;14.02;100.00
41264;BME280;26998;48.714;9.414;2022-08-21T00:51:38;98868.06;;;13.95;100.00
41264;BME280;26998;48.714;9.414;2022-08-21T00:54:05;98878.06;;;13.88;100.00
41264;BME280;26998;48.714;9.414;2022-08-21T00:56:44;98869.63;;;13.84;100.00
41264;BME280;26998;48.714;9.414;2022-08-21T00:59:11;98871.91;;;13.81;100.00
41264;BME280;26998;48.714;9.414;2022-08-21T01:01:37;98877.34;;;13.74;100.00
41264;BME280;26998;48.714;9.414;2022-08-21T01:04:03;98878.16;;;13.75;100.00
41264;BME280;26998;48.714;9.414;2022-08-21T01:06:30;98874.44;;;13.76;100.00
41264;BME280;26998;48.714;9.414;2022-08-21T01:08:56;98872.41;;;13.71;100.00
41264;BME280;26998;48.714;9.414;2022-08-21T01:11:23;98879.03;;;13.69;100.00
41264;BME280;26998;48.714;9.414;2022-08-21T01:13:50;98871.78;;;13.69;100.00
41264;BME280;26998;48.714;9.414;2022-08-21T01:16:17;98866.84;;;13.66;100.00
41264;BME280;26998;48.714;9.414;2022-08-21T01:18:44;98876.53;;;13.67;100.00
41264;BME280;26998;48.714;9.414;2022-08-21T01:21:16;98878.03;;;13.63;100.00
41264;BME280;26998;48.714;9.414;2022-08-21T01:23:45;98876.16;;;13.63;100.00
41264;BME280;26998;48.714;9.414;2022-08-21T01:26:13;98878.22;;;13.68;100.00
41264;BME280;26998;48.714;9.414;2022-08-21T01:28:48;98869.78;;;13.65;100.00
41264;BME280;26998;48.714;9.414;2022-08-21T01:31:16;98874.09;;;13.66;100.00
41264;BME280;26998;48.714;9.414;2022-08-21T01:33:51;98870.78;;;13.63;100.00
41264;BME280;26998;48.714;9.414;2022-08-21T01:36:18;98871.03;;;13.62;100.00
41264;BME280;26998;48.714;9.414;2022-08-21T01:38:45;98867.09;;;13.58;100.00
41264;BME280;26998;48.714;9.414;2022-08-21T01:41:11;98861.72;;;13.58;100.00
41264;BME280;26998;48.714;9.414;2022-08-21T01:43:37;98858.47;;;13.56;100.00
41264;BME280;26998;48.714;9.414;2022-08-21T01:46:05;98861.34;;;13.54;100.00
41264;BME280;26998;48.714;9.414;2022-08-21T01:48:31;98862.84;;;13.50;100.00
41264;BME280;26998;48.714;9.414;2022-08-21T01:50:58;98863.66;;;13.51;100.00
41264;BME280;26998;48.714;9.414;2022-08-21T01:53:24;98866.38;;;13.44;100.00
41264;BME280;26998;48.714;9.414;2022-08-21T01:55:58;98862.25;;;13.42;100.00
41264;BME280;26998;48.714;9.414;2022-08-21T01:58:24;98865.34;;;13.45;100.00
41264;BME280;26998;48.714;9.414;2022-08-21T02:00:51;98865.59;;;13.37;100.00
41264;BME280;26998;48.714;9.414;2022-08-21T02:03:18;98857.13;;;13.40;100.00
41264;BME280;26998;48.714;9.414;2022-08-21T02:06:01;98856.94;;;13.35;100.00
41264;BME280;26998;48.714;9.414;2022-08-21T02:08:28;98851.38;;;13.30;100.00
41264;BME280;26998;48.714;9.414;2022-08-21T02:10:55;98852.03;;;13.25;100.00
41264;BME280;26998;48.714;9.414;2022-08-21T02:13:21;98847.50;;;13.19;100.00
41264;BME280;26998;48.714;9.414;2022-08-21T02:15:48;98854.34;;;13.15;100.00
41264;BME280;26998;48.714;9.414;2022-08-21T02:18:14;98849.59;;;13.10;100.00
41264;BME280;26998;48.714;9.414;2022-08-21T02:20:44;98846.53;;;13.07;100.00
41264;BME280;26998;48.714;9.414;2022-08-21T02:23:12;98845.50;;;13.08;100.00
41264;BME280;26998;48.714;9.414;2022-08-21T02:25:38;98843.66;;;13.08;100.00
41264;BME280;26998;48.714;9.414;2022-08-21T02:28:06;98844.47;;;13.09;100.00
41264;BME280;26998;48.714;9.414;2022-08-21T02:30:35;98846.72;;;13.12;100.00
41264;BME280;26998;48.714;9.414;2022-08-21T02:33:02;98834.16;;;13.06;100.00
41264;BME280;26998;48.714;9.414;2022-08-21T02:35:28;98840.38;;;13.00;100.00
41264;BME280;26998;48.714;9.414;2022-08-21T02:37:56;98840.38;;;13.00;100.00
41264;BME280;26998;48.714;9.414;2022-08-21T02:40:25;98845.94;;;12.98;100.00
41264;BME280;26998;48.714;9.414;2022-08-21T02:42:53;98842.44;;;12.98;100.00
41264;BME280;26998;48.714;9.414;2022-08-21T02:45:20;98842.03;;;13.01;100.00
41264;BME280;26998;48.714;9.414;2022-08-21T02:47:53;98841.63;;;12.97;100.00
41264;BME280;26998;48.714;9.414;2022-08-21T02:50:21;98843.31;;;12.91;100.00
41264;BME280;26998;48.714;9.414;2022-08-21T02:52:51;98835.28;;;12.85;100.00
41264;BME280;26998;48.714;9.414;2022-08-21T02:55:21;98838.41;;;12.82;100.00
41264;BME280;26998;48.714;9.414;2022-08-21T02:57:48;98846.25;;;12.77;100.00
41264;BME280;26998;48.714;9.414;2022-08-21T03:00:15;98844.22;;;12.72;100.00
41264;BME280;26998;48.714;9.414;2022-08-21T03:02:42;98850.19;;;12.74;100.00
41264;BME280;26998;48.714;9.414;2022-08-21T03:05:09;98844.88;;;12.61;100.00
41264;BME280;26998;48.714;9.414;2022-08-21T03:07:36;98843.00;;;12.61;100.00
41264;BME280;26998;48.714;9.414;2022-08-21T03:10:04;98839.34;;;12.56;100.00
41264;BME280;26998;48.714;9.414;2022-08-21T03:12:30;98844.25;;;12.52;100.00
41264;BME280;26998;48.714;9.414;2022-08-21T03:14:57;98836.25;;;12.45;100.00
41264;BME280;26998;48.714;9.414;2022-08-21T03:17:24;98833.38;;;12.40;100.00
41264;BME280;26998;48.714;9.414;2022-08-21T03:19:55;98841.44;;;12.40;100.00
41264;BME280;26998;48.714;9.414;2022-08-21T03:22:21;98839.75;;;12.46;100.00
41264;BME280;26998;48.714;9.414;2022-08-21T03:24:48;98840.59;;;12.46;100.00
41264;BME280;26998;48.714;9.414;2022-08-21T03:27:14;98844.91;;;12.47;100.00
41264;BME280;26998;48.714;9.414;2022-08-21T03:29:41;98849.22;;;12.48;100.00
41264;BME280;26998;48.714;9.414;2022-08-21T03:32:07;98846.53;;;12.48;100.00
41264;BME280;26998;48.714;9.414;2022-08-21T03:34:34;98843.69;;;12.43;100.00
41264;BME280;26998;48.714;9.414;2022-08-21T03:37:01;98844.13;;;12.40;100.00
41264;BME280;26998;48.714;9.414;2022-08-21T03:39:27;98843.06;;;12.41;100.00
41264;BME280;26998;48.714;9.414;2022-08-21T03:41:54;98842.03;;;12.42;100.00
41264;BME280;26998;48.714;9.414;2022-08-21T03:44:22;98838.75;;;12.40;100.00
41264;BME280;26998;48.714;9.414;2022-08-21T03:46:49;98840.81;;;12.38;100.00
41264;BME280;26998;48.714;9.414;2022-08-21T03:49:15;98852.56;;;12.37;100.00
41264;BME280;26998;48.714;9.414;2022-08-21T03:51:42;98845.78;;;12.35;100.00
41264;BME280;26998;48.714;9.414;2022-08-21T03:54:09;98855.66;;;12.34;100.00
41264;BME280;26998;48.714;9.414;2022-08-21T03:56:35;98850.31;;;12.34;100.00
41264;BME280;26998;48.714;9.414;2022-08-21T03:59:02;98847.00;;;12.32;100.00
41264;BME280;26998;48.714;9.414;2022-08-21T04:01:29;98859.78;;;12.30;100.00
41264;BME280;26998;48.714;9.414;2022-08-21T04:03:55;98859.19;;;12.28;100.00
41264;BME280;26998;48.714;9.414;2022-08-21T04:06:22;98855.91;;;12.19;100.00
41264;BME280;26998;48.714;9.414;2022-08-21T04:08:48;98860.84;;;12.16;100.00
41264;BME280;26998;48.714;9.414;2022-08-21T04:11:15;98858.16;;;12.16;100.00
41264;BME280;26998;48.714;9.414;2022-08-21T04:13:41;98855.69;;;12.14;100.00
41264;BME280;26998;48.714;9.414;2022-08-21T04:16:10;98866.41;;;12.08;100.00
41264;BME280;26998;48.714;9.414;2022-08-21T04:18:36;98865.41;;;12.09;100.00
41264;BME280;26998;48.714;9.414;2022-08-21T04:21:03;98866.00;;;12.04;100.00
41264;BME280;26998;48.714;9.414;2022-08-21T04:23:30;98865.19;;;12.04;100.00
41264;BME280;26998;48.714;9.414;2022-08-21T04:25:56;98869.31;;;11.99;100.00
41264;BME280;26998;48.714;9.414;2022-08-21T04:28:23;98875.09;;;12.03;100.00
41264;BME280;26998;48.714;9.414;2022-08-21T04:30:55;98879.41;;;12.04;100.00
41264;BME280;26998;48.714;9.414;2022-08-21T04:33:22;98881.66;;;12.00;100.00
41264;BME280;26998;48.714;9.414;2022-08-21T04:35:49;98884.53;;;11.99;100.00
41264;BME280;26998;48.714;9.414;2022-08-21T04:38:16;98890.31;;;11.96;100.00
41264;BME280;26998;48.714;9.414;2022-08-21T04:40:42;98882.50;;;11.94;100.00
41264;BME280;26998;48.714;9.414;2022-08-21T04:43:09;98880.00;;;11.93;100.00
41264;BME280;26998;48.714;9.414;2022-08-21T04:45:37;98885.81;;;11.96;100.00
41264;BME280;26998;48.714;9.414;2022-08-21T04:48:04;98892.56;;;11.99;100.00
41264;BME280;26998;48.714;9.414;2022-08-21T04:50:43;98893.63;;;12.05;100.00
41264;BME280;26998;48.714;9.414;2022-08-21T04:53:13;98898.97;;;12.11;100.00
41264;BME280;26998;48.714;9.414;2022-08-21T04:55:40;98894.66;;;12.10;100.00
41264;BME280;26998;48.714;9.414;2022-08-21T04:58:08;98892.59;;;12.12;100.00
41264;BME280;26998;48.714;9.414;2022-08-21T05:00:37;98897.53;;;12.22;100.00
41264;BME280;26998;48.714;9.414;2022-08-21T05:03:04;98898.97;;;12.24;100.00
41264;BME280;26998;48.714;9.414;2022-08-21T05:05:31;98895.03;;;12.20;100.00
41264;BME280;26998;48.714;9.414;2022-08-21T05:07:59;98895.03;;;12.27;100.00
41264;BME280;26998;48.714;9.414;2022-08-21T05:10:27;98903.69;;;12.29;100.00
41264;BME280;26998;48.714;9.414;2022-08-21T05:12:53;98898.34;;;12.29;100.00
41264;BME280;26998;48.714;9.414;2022-08-21T05:15:20;98898.75;;;12.33;100.00
41264;BME280;26998;48.714;9.414;2022-08-21T05:17:47;98890.28;;;12.36;100.00
41264;BME280;26998;48.714;9.414;2022-08-21T05:20:26;98896.47;;;12.43;100.00
41264;BME280;26998;48.714;9.414;2022-08-21T05:22:53;98897.31;;;12.43;100.00
41264;BME280;26998;48.714;9.414;2022-08-21T05:25:19;98897.91;;;12.45;100.00
41264;BME280;26998;48.714;9.414;2022-08-21T05:27:48;98902.59;;;12.70;100.00
41264;BME280;26998;48.714;9.414;2022-08-21T05:30:17;98904.16;;;12.98;100.00
41264;BME280;26998;48.714;9.414;2022-08-21T05:32:44;98895.41;;;13.15;100.00
41264;BME280;26998;48.714;9.414;2022-08-21T05:35:10;98897.44;;;13.27;100.00
41264;BME280;26998;48.714;9.414;2022-08-21T05:37:37;98898.75;;;13.04;100.00
41264;BME280;26998;48.714;9.414;2022-08-21T05:40:03;98905.78;;;12.99;100.00
41264;BME280;26998;48.714;9.414;2022-08-21T05:42:48;98914.19;;;13.15;100.00
41264;BME280;26998;48.714;9.414;2022-08-21T05:45:20;98910.50;;;13.55;100.00
41264;BME280;26998;48.714;9.414;2022-08-21T05:48:11;98912.66;;;14.03;100.00
41264;BME280;26998;48.714;9.414;2022-08-21T05:50:37;98902.19;;;14.20;100.00
41264;BME280;26998;48.714;9.414;2022-08-21T05:53:04;98901.69;;;14.29;100.00
41264;BME280;26998;48.714;9.414;2022-08-21T05:55:32;98910.09;;;14.15;100.00
41264;BME280;26998;48.714;9.414;2022-08-21T05:57:59;98904.22;;;13.99;100.00
41264;BME280;26998;48.714;9.414;2022-08-21T06:00:25;98911.34;;;14.12;100.00
41264;BME280;26998;48.714;9.414;2022-08-21T06:02:52;98899.63;;;14.50;100.00
41264;BME280;26998;48.714;9.414;2022-08-21T06:05:18;98887.63;;;15.08;100.00
41264;BME280;26998;48.714;9.414;2022-08-21T06:08:02;98888.75;;;15.60;100.00
41264;BME280;26998;48.714;9.414;2022-08-21T06:10:28;98890.66;;;16.13;100.00
41264;BME280;26998;48.714;9.414;2022-08-21T06:12:55;98887.50;;;16.63;100.00
41264;BME280;26998;48.714;9.414;2022-08-21T06:15:21;98882.88;;;16.99;100.00
41264;BME280;26998;48.714;9.414;2022-08-21T06:17:48;98881.66;;;17.19;100.00
41264;BME280;26998;48.714;9.414;2022-08-21T06:20:14;98887.59;;;16.92;100.00
41264;BME280;26998;48.714;9.414;2022-08-21T06:22:40;98889.38;;;17.27;100.00
41264;BME280;26998;48.714;9.414;2022-08-21T06:25:07;98886.13;;;17.70;95.80
41264;BME280;26998;48.714;9.414;2022-08-21T06:27:33;98877.91;;;17.65;97.46
41264;BME280;26998;48.714;9.414;2022-08-21T06:30:00;98884.34;;;17.47;96.95
41264;BME280;26998;48.714;9.414;2022-08-21T06:32:26;98884.13;;;17.66;96.24
41264;BME280;26998;48.714;9.414;2022-08-21T06:34:53;98886.41;;;18.03;95.16
41264;BME280;26998;48.714;9.414;2022-08-21T06:37:19;98885.03;;;18.00;93.41
41264;BME280;26998;48.714;9.414;2022-08-21T06:39:45;98884.63;;;18.64;93.99
41264;BME280;26998;48.714;9.414;2022-08-21T06:42:15;98872.91;;;18.75;87.90
41264;BME280;26998;48.714;9.414;2022-08-21T06:44:42;98879.84;;;17.82;96.27
41264;BME280;26998;48.714;9.414;2022-08-21T06:47:08;98877.91;;;18.11;96.74
41264;BME280;26998;48.714;9.414;2022-08-21T06:49:35;98880.63;;;18.11;92.89
41264;BME280;26998;48.714;9.414;2022-08-21T06:52:02;98876.91;;;17.83;94.99
41264;BME280;26998;48.714;9.414;2022-08-21T06:54:28;98876.22;;;17.30;98.42
41264;BME280;26998;48.714;9.414;2022-08-21T06:56:55;98879.38;;;16.87;100.00
41264;BME280;26998;48.714;9.414;2022-08-21T06:59:23;98879.03;;;16.95;100.00
41264;BME280;26998;48.714;9.414;2022-08-21T07:01:49;98879.97;;;17.01;100.00
41264;BME280;26998;48.714;9.414;2022-08-21T07:04:16;98887.22;;;17.00;100.00
41264;BME280;26998;48.714;9.414;2022-08-21T07:06:42;98875.75;;;16.81;100.00
41264;BME280;26998;48.714;9.414;2022-08-21T07:09:09;98873.03;;;16.70;100.00
41264;BME280;26998;48.714;9.414;2022-08-21T07:11:35;98866.63;;;16.82;100.00
41264;BME280;26998;48.714;9.414;2022-08-21T07:14:12;98870.06;;;17.06;100.00
41264;BME280;26998;48.714;9.414;2022-08-21T07:16:45;98876.25;;;17.19;100.00
41264;BME280;26998;48.714;9.414;2022-08-21T07:19:12;98877.50;;;17.28;100.00
41264;BME280;26998;48.714;9.414;2022-08-21T07:21:38;98869.97;;;17.59;100.00
41264;BME280;26998;48.714;9.414;2022-08-21T07:24:05;98871.84;;;17.58;100.00
41264;BME280;26998;48.714;9.414;2022-08-21T07:26:31;98871.53;;;17.71;99.54
41264;BME280;26998;48.714;9.414;2022-08-21T07:28:58;98866.53;;;17.92;97.01
41264;BME280;26998;48.714;9.414;2022-08-21T07:31:24;98858.22;;;18.15;95.25
41264;BME280;26998;48.714;9.414;2022-08-21T07:33:51;98856.72;;;18.41;94.70
41264;BME280;26998;48.714;9.414;2022-08-21T07:36:18;98862.63;;;18.38;94.28
41264;BME280;26998;48.714;9.414;2022-08-21T07:38:44;98860.59;;;18.12;96.74
41264;BME280;26998;48.714;9.414;2022-08-21T07:41:15;98858.06;;;18.05;100.00
41264;BME280;26998;48.714;9.414;2022-08-21T07:43:41;98855.47;;;18.10;99.16
41264;BME280;26998;48.714;9.414;2022-08-21T07:46:11;98856.50;;;18.26;97.36
41264;BME280;26998;48.714;9.414;2022-08-21T07:48:38;98856.56;;;18.31;99.36
41264;BME280;26998;48.714;9.414;2022-08-21T07:51:06;98853.44;;;18.39;99.64
41264;BME280;26998;48.714;9.414;2022-08-21T07:53:33;98855.94;;;18.63;96.78
41264;BME280;26998;48.714;9.414;2022-08-21T07:55:59;98852.59;;;18.95;94.46
41264;BME280;26998;48.714;9.414;2022-08-21T07:58:26;98847.59;;;19.08;93.21
41264;BME280;26998;48.714;9.414;2022-08-21T08:00:52;98839.78;;;18.90;94.21
41264;BME280;26998;48.714;9.414;2022-08-21T08:03:19;98845.28;;;18.95;95.16
41264;BME280;26998;48.714;9.414;2022-08-21T08:05:55;98840.22;;;19.04;93.58
41264;BME280;26998;48.714;9.414;2022-08-21T08:08:22;98841.94;;;19.64;89.68
41264;BME280;26998;48.714;9.414;2022-08-21T08:10:48;98836.94;;;19.51;88.33
41264;BME280;26998;48.714;9.414;2022-08-21T08:13:15;98838.81;;;19.77;84.79
41264;BME280;26998;48.714;9.414;2022-08-21T08:15:41;98837.50;;;20.17;83.62
41264;BME280;26998;48.714;9.414;2022-08-21T08:18:08;98825.22;;;20.52;83.92
41264;BME280;26998;48.714;9.414;2022-08-21T08:20:34;98829.09;;;19.81;88.36
41264;BME280;26998;48.714;9.414;2022-08-21T08:23:02;98829.69;;;19.89;86.24
41264;BME280;26998;48.714;9.414;2022-08-21T08:25:29;98821.56;;;20.31;85.84
41264;BME280;26998;48.714;9.414;2022-08-21T08:28:02;98824.66;;;20.50;85.52
41264;BME280;26998;48.714;9.414;2022-08-21T08:30:41;98812.66;;;20.93;78.09
41264;BME280;26998;48.714;9.414;2022-08-21T08:33:08;98817.91;;;21.15;75.62
41264;BME280;26998;48.714;9.414;2022-08-21T08:35:35;98812.47;;;21.15;76.31
41264;BME280;26998;48.714;9.414;2022-08-21T08:38:04;98801.06;;;20.50;75.70
41264;BME280;26998;48.714;9.414;2022-08-21T08:40:39;98810.31;;;20.55;80.22
41264;BME280;26998;48.714;9.414;2022-08-21T08:43:09;98809.88;;;20.73;81.10
41264;BME280;26998;48.714;9.414;2022-08-21T08:45:40;98801.03;;;21.13;78.67
41264;BME280;26998;48.714;9.414;2022-08-21T08:48:10;98798.94;;;21.82;75.93
41264;BME280;26998;48.714;9.414;2022-08-21T08:50:49;98796.75;;;21.99;72.20
41264;BME280;26998;48.714;9.414;2022-08-21T08:55:48;98797.84;;;21.67;71.97
41264;BME280;26998;48.714;9.414;2022-08-21T08:58:27;98794.06;;;21.68;74.59
41264;BME280;26998;48.714;9.414;2022-08-21T09:00:54;98798.38;;;21.95;70.58
41264;BME280;26998;48.714;9.414;2022-08-21T09:03:23;98794.56;;;22.22;69.99
41264;BME280;26998;48.714;9.414;2022-08-21T09:05:55;98794.50;;;22.47;67.36
41264;BME280;26998;48.714;9.414;2022-08-21T09:10:57;98793.97;;;23.15;63.38
41264;BME280;26998;48.714;9.414;2022-08-21T09:13:32;98795.03;;;23.14;58.58
41264;BME280;26998;48.714;9.414;2022-08-21T09:18:44;98789.81;;;23.23;52.93
41264;BME280;26998;48.714;9.414;2022-08-21T09:29:29;98769.91;;;23.96;55.38
41264;BME280;26998;48.714;9.414;2022-08-21T09:31:57;98769.44;;;24.13;53.82
41264;BME280;26998;48.714;9.414;2022-08-21T09:34:27;98777.53;;;24.23;51.77
41264;BME280;26998;48.714;9.414;2022-08-21T09:36:54;98775.94;;;24.17;50.54
41264;BME280;26998;48.714;9.414;2022-08-21T09:39:26;98770.59;;;24.07;51.18
41264;BME280;26998;48.714;9.414;2022-08-21T09:41:57;98764.53;;;24.15;53.32
41264;BME280;26998;48.714;9.414;2022-08-21T09:44:25;98768.03;;;24.45;53.37
41264;BME280;26998;48.714;9.414;2022-08-21T09:46:52;98765.56;;;24.67;53.08
41264;BME280;26998;48.714;9.414;2022-08-21T09:49:35;98770.75;;;24.69;51.62
41264;BME280;26998;48.714;9.414;2022-08-21T09:52:03;98766.59;;;24.23;52.77
41264;BME280;26998;48.714;9.414;2022-08-21T09:54:33;98763.88;;;24.71;50.36
41264;BME280;26998;48.714;9.414;2022-08-21T09:57:04;98762.25;;;24.70;51.03
41264;BME280;26998;48.714;9.414;2022-08-21T09:59:39;98761.19;;;24.90;49.77
41264;BME280;26998;48.714;9.414;2022-08-21T10:04:52;98754.47;;;24.34;52.52
41264;BME280;26998;48.714;9.414;2022-08-21T10:07:20;98759.09;;;24.82;49.73
41264;BME280;26998;48.714;9.414;2022-08-21T10:09:57;98758.00;;;25.02;49.33
41264;BME280;26998;48.714;9.414;2022-08-21T10:12:26;98753.75;;;25.33;47.99
41264;BME280;26998;48.714;9.414;2022-08-21T10:15:12;98747.84;;;24.64;50.20
41264;BME280;26998;48.714;9.414;2022-08-21T10:20:29;98742.94;;;24.42;48.04
41264;BME280;26998;48.714;9.414;2022-08-21T10:23:37;98750.06;;;25.24;44.91
41264;BME280;26998;48.714;9.414;2022-08-21T10:26:17;98744.25;;;25.45;45.26
41264;BME280;26998;48.714;9.414;2022-08-21T10:36:13;98731.84;;;24.96;45.54
41264;BME280;26998;48.714;9.414;2022-08-21T10:38:44;98741.00;;;25.75;44.71
41264;BME280;26998;48.714;9.414;2022-08-21T10:46:44;98748.56;;;25.84;42.32
41264;BME280;26998;48.714;9.414;2022-08-21T10:49:17;98738.66;;;26.01;42.29
41264;BME280;26998;48.714;9.414;2022-08-21T10:52:05;98745.91;;;26.53;40.02
41264;BME280;26998;48.714;9.414;2022-08-21T10:54:45;98737.97;;;26.51;38.13
41264;BME280;26998;48.714;9.414;2022-08-21T10:57:22;98742.50;;;26.69;39.77
41264;BME280;26998;48.714;9.414;2022-08-21T11:00:03;98738.56;;;26.20;38.66
41264;BME280;26998;48.714;9.414;2022-08-21T11:02:31;98738.75;;;26.10;39.15
41264;BME280;26998;48.714;9.414;2022-08-21T11:05:17;98725.56;;;26.40;38.46
41264;BME280;26998;48.714;9.414;2022-08-21T11:07:49;98733.69;;;26.72;38.05
41264;BME280;26998;48.714;9.414;2022-08-21T11:10:29;98729.03;;;26.73;37.73
41264;BME280;26998;48.714;9.414;2022-08-21T11:13:01;98723.03;;;26.43;38.19
41264;BME280;26998;48.714;9.414;2022-08-21T11:20:34;98714.94;;;26.88;38.33
41264;BME280;26998;48.714;9.414;2022-08-21T11:23:07;98710.41;;;26.84;37.46
41264;BME280;26998;48.714;9.414;2022-08-21T11:25:37;98708.53;;;26.57;38.98
41264;BME280;26998;48.714;9.414;2022-08-21T11:28:15;98706.78;;;27.11;36.48
41264;BME280;26998;48.714;9.414;2022-08-21T11:30:58;98711.25;;;27.21;36.59
41264;BME280;26998;48.714;9.414;2022-08-21T11:33:34;98716.53;;;27.39;35.92
41264;BME280;26998;48.714;9.414;2022-08-21T11:38:41;98714.47;;;27.45;34.92
41264;BME280;26998;48.714;9.414;2022-08-21T11:48:37;98698.31;;;26.85;35.96
41264;BME280;26998;48.714;9.414;2022-08-21T11:51:11;98690.22;;;27.16;36.56
41264;BME280;26998;48.714;9.414;2022-08-21T11:53:41;98696.16;;;26.18;37.37
41264;BME280;26998;48.714;9.414;2022-08-21T11:56:15;98689.94;;;26.67;37.62
41264;BME280;26998;48.714;9.414;2022-08-21T11:58:45;98706.06;;;26.69;37.28
41264;BME280;26998;48.714;9.414;2022-08-21T12:01:17;98691.69;;;26.36;37.42
41264;BME280;26998;48.714;9.414;2022-08-21T12:06:39;98684.13;;;26.83;36.59
41264;BME280;26998;48.714;9.414;2022-08-21T12:14:37;98687.88;;;27.09;35.38
41264;BME280;26998;48.714;9.414;2022-08-21T12:17:06;98694.81;;;26.29;36.69
41264;BME280;26998;48.714;9.414;2022-08-21T12:19:37;98683.66;;;26.39;37.11
41264;BME280;26998;48.714;9.414;2022-08-21T12:26:58;98682.03;;;27.47;36.39
41264;BME280;26998;48.714;9.414;2022-08-21T12:29:27;98680.25;;;27.43;35.03
41264;BME280;26998;48.714;9.414;2022-08-21T12:31:57;98674.19;;;27.54;34.45
41264;BME280;26998;48.714;9.414;2022-08-21T12:34:25;98673.91;;;27.64;35.04
41264;BME280;26998;48.714;9.414;2022-08-21T12:36:57;98670.31;;;27.55;34.11
41264;BME280;26998;48.714;9.414;2022-08-21T12:39:26;98667.91;;;27.62;34.26
41264;BME280;26998;48.714;9.414;2022-08-21T12:42:03;98669.97;;;27.79;33.89
41264;BME280;26998;48.714;9.414;2022-08-21T12:46:58;98664.06;;;26.96;32.28
41264;BME280;26998;48.714;9.414;2022-08-21T12:49:36;98664.34;;;26.94;33.25
41264;BME280;26998;48.714;9.414;2022-08-21T12:52:06;98662.78;;;26.02;34.51
41264;BME280;26998;48.714;9.414;2022-08-21T12:54:39;98663.19;;;26.87;31.13
41264;BME280;26998;48.714;9.414;2022-08-21T12:57:07;98660.31;;;26.56;31.72
41264;BME280;26998;48.714;9.414;2022-08-21T12:59:39;98658.38;;;26.92;31.06
41264;BME280;26998;48.714;9.414;2022-08-21T13:02:11;98657.69;;;27.09;31.02
41264;BME280;26998;48.714;9.414;2022-08-21T13:04:40;98651.22;;;27.05;30.96
41264;BME280;26998;48.714;9.414;2022-08-21T13:07:08;98651.53;;;27.04;32.30
41264;BME280;26998;48.714;9.414;2022-08-21T13:09:35;98652.56;;;27.30;32.37
41264;BME280;26998;48.714;9.414;2022-08-21T13:12:01;98650.00;;;27.65;30.42
41264;BME280;26998;48.714;9.414;2022-08-21T13:14:34;98653.41;;;27.39;29.92
41264;BME280;26998;48.714;9.414;2022-08-21T13:17:10;98651.09;;;27.55;30.64
41264;BME280;26998;48.714;9.414;2022-08-21T13:19:37;98658.56;;;27.63;31.52
41264;BME280;26998;48.714;9.414;2022-08-21T13:22:04;98652.69;;;27.56;29.18
41264;BME280;26998;48.714;9.414;2022-08-21T13:24:57;98650.53;;;27.00;30.33
41264;BME280;26998;48.714;9.414;2022-08-21T13:27:28;98646.63;;;26.92;29.67
41264;BME280;26998;48.714;9.414;2022-08-21T13:30:02;98649.19;;;27.11;29.83
41264;BME280;26998;48.714;9.414;2022-08-21T13:32:30;98653.19;;;26.68;29.01
41264;BME280;26998;48.714;9.414;2022-08-21T13:34:57;98644.56;;;26.61;28.01
41264;BME280;26998;48.714;9.414;2022-08-21T13:37:30;98647.06;;;27.08;28.90
41264;BME280;26998;48.714;9.414;2022-08-21T13:39:58;98647.59;;;26.74;28.41
41264;BME280;26998;48.714;9.414;2022-08-21T13:42:24;98644.72;;;27.15;29.13
41264;BME280;26998;48.714;9.414;2022-08-21T13:44:52;98640.72;;;26.62;28.11
41264;BME280;26998;48.714;9.414;2022-08-21T13:47:28;98637.06;;;27.12;26.42
41264;BME280;26998;48.714;9.414;2022-08-21T13:49:55;98639.81;;;27.34;27.63
41264;BME280;26998;48.714;9.414;2022-08-21T13:52:25;98641.53;;;27.22;27.59
41264;BME280;26998;48.714;9.414;2022-08-21T13:55:11;98636.56;;;26.51;29.83
41264;BME280;26998;48.714;9.414;2022-08-21T13:57:40;98629.78;;;27.07;29.92
41264;BME280;26998;48.714;9.414;2022-08-21T14:00:26;98631.53;;;26.31;29.25
41264;BME280;26998;48.714;9.414;2022-08-21T14:02:53;98631.16;;;26.60;29.25
41264;BME280;26998;48.714;9.414;2022-08-21T14:05:21;98630.88;;;26.61;28.68
41264;BME280;26998;48.714;9.414;2022-08-21T14:07:48;98623.19;;;26.86;28.17
41264;BME280;26998;48.714;9.414;2022-08-21T14:10:18;98629.25;;;26.46;27.45